Aeroboteco Virtual Airline

Aeroboteco Virtual Airlines! Uma nuvem a frente.



 INFORMAÇÕES METEOROLÓGICAS
METAR FOR PAMD
ADDS - METARS form results

(1309 UTC 17 January 2019)
Data provider http://aviationweather.gov/metar/data/
 
METAR text: PAMD 171304Z AUTO 05006KT 8SM BKN009 04/03 A2967 RMK AO2
Conditions at: PAMD (MIDDLETON ISLAND, AK, US) observed 1304 UTC 17 January 2019
Temperature: 4.0°C (39°F)
Dewpoint: 3.0°C (37°F) [RH = 93%]
Pressure (altimeter): 29.67 inches Hg (1004.8 mb)
Winds: from the NE (50 degrees) at 7 MPH (6 knots; 3.1 m/s)
Visibility: 8 miles (13 km)
Ceiling: 900 feet AGL
Clouds: broken clouds at 900 feet AGL
Weather: automated observation with no human augmentation;
there may or may not be significant weather present at this time

METAR text: PAMD 171251Z AUTO 04007KT 8SM FEW003 OVC011 04/04 A2968 RMK AO2 SLP040 T00440039
Conditions at: PAMD (MIDDLETON ISLAND, AK, US) observed 1251 UTC 17 January 2019
Temperature: 4.4°C (40°F)
Dewpoint: 3.9°C (39°F) [RH = 97%]
Pressure (altimeter): 29.68 inches Hg (1005.2 mb)
[Sea-level pressure: 1004.0 mb]
Winds: from the NE (40 degrees) at 8 MPH (7 knots; 3.6 m/s)
Visibility: 8 miles (13 km)
Ceiling: 1100 feet AGL
Clouds: few clouds at 300 feet AGL
overcast cloud deck at 1100 feet AGL
Weather: automated observation with no human augmentation;
there may or may not be significant weather present at this time

METAR text: PAMD 171225Z AUTO 05007KT 7SM BKN011 04/04 A2968 RMK AO2
Conditions at: PAMD (MIDDLETON ISLAND, AK, US) observed 1225 UTC 17 January 2019
Temperature: 4.0°C (39°F)
Dewpoint: 4.0°C (39°F) [RH = 100%]
Pressure (altimeter): 29.68 inches Hg (1005.2 mb)
Winds: from the NE (50 degrees) at 8 MPH (7 knots; 3.6 m/s)
Visibility: 7 miles (11 km)
Ceiling: 1100 feet AGL
Clouds: broken clouds at 1100 feet AGL
Weather: automated observation with no human augmentation;
there may or may not be significant weather present at this time

 MAPA DO AEROPORTO

 INFORMAÇÕES DA PISTA
Pista 02 Tamanho da pista 4178 ft Largura da pista 115 ft
Elevação da pista 100 ft Ranhura da pista 1020 ft Proa da pista 34
Pista 20 Tamanho da pista 4178 ft Largura da pista 115 ft
Elevação da pista 100 ft Ranhura da pista 0 ft Proa da pista 214
Pista 13 Tamanho da pista 1500 ft Largura da pista 125 ft
Elevação da pista 99 ft Ranhura da pista 0 ft Proa da pista 149
Pista 31 Tamanho da pista 1500 ft Largura da pista 125 ft
Elevação da pista 97 ft Ranhura da pista 0 ft Proa da pista 329

 FREQUÊNCIAS DO AEROPORTO

 AUXÍLIOS DE NAVEGAÇÃO PRÓXIMOS AO AEROPORTO